sensor_id;sensor_type;location;lat;lon;timestamp;pressure;altitude;pressure_sealevel;temperature;humidity
9839;BME280;4958;48.150;11.506;2023-02-16T20:35:01;96518.28;;;8.54;49.82
9839;BME280;4958;48.150;11.506;2023-02-16T20:37:27;96511.47;;;8.72;49.52
9839;BME280;4958;48.150;11.506;2023-02-16T20:39:54;96518.66;;;8.96;49.01
9839;BME280;4958;48.150;11.506;2023-02-16T20:42:21;96505.28;;;9.20;48.55
9839;BME280;4958;48.150;11.506;2023-02-16T20:44:47;96516.91;;;9.42;48.88
9839;BME280;4958;48.150;11.506;2023-02-16T20:47:14;96505.50;;;9.62;48.19
9839;BME280;4958;48.150;11.506;2023-02-16T20:49:40;96511.59;;;9.79;48.08
9839;BME280;4958;48.150;11.506;2023-02-16T20:52:08;96498.34;;;9.91;47.68
9839;BME280;4958;48.150;11.506;2023-02-16T20:54:35;96503.09;;;10.04;47.61
9839;BME280;4958;48.150;11.506;2023-02-16T20:57:02;96497.84;;;10.14;46.95
9839;BME280;4958;48.150;11.506;2023-02-16T20:59:28;96504.53;;;10.24;47.51
9839;BME280;4958;48.150;11.506;2023-02-16T21:01:55;96497.97;;;10.30;47.22
9839;BME280;4958;48.150;11.506;2023-02-16T21:04:21;96504.31;;;10.35;46.43
9839;BME280;4958;48.150;11.506;2023-02-16T21:06:48;96508.00;;;10.41;46.67
9839;BME280;4958;48.150;11.506;2023-02-16T21:09:15;96498.06;;;10.46;47.00
9839;BME280;4958;48.150;11.506;2023-02-16T21:11:42;96499.22;;;10.52;46.35
9839;BME280;4958;48.150;11.506;2023-02-16T21:14:10;96492.00;;;10.55;46.63
9839;BME280;4958;48.150;11.506;2023-02-16T21:16:37;96496.22;;;10.56;46.09
9839;BME280;4958;48.150;11.506;2023-02-16T21:19:05;96499.25;;;10.60;46.28
9839;BME280;4958;48.150;11.506;2023-02-16T21:21:31;96506.97;;;10.60;46.71
9839;BME280;4958;48.150;11.506;2023-02-16T21:23:57;96501.03;;;10.59;46.71
9839;BME280;4958;48.150;11.506;2023-02-16T21:26:25;96507.34;;;10.65;46.62
9839;BME280;4958;48.150;11.506;2023-02-16T21:28:52;96501.22;;;10.66;46.81
9839;BME280;4958;48.150;11.506;2023-02-16T21:31:22;96505.91;;;10.70;46.63
9839;BME280;4958;48.150;11.506;2023-02-16T21:33:50;96494.00;;;10.69;46.44
9839;BME280;4958;48.150;11.506;2023-02-16T21:36:19;96491.13;;;10.72;46.33
9839;BME280;4958;48.150;11.506;2023-02-16T21:38:46;96497.59;;;10.77;46.37
9839;BME280;4958;48.150;11.506;2023-02-16T21:41:15;96485.97;;;10.72;45.96
9839;BME280;4958;48.150;11.506;2023-02-16T21:43:57;96478.91;;;10.75;46.46
9839;BME280;4958;48.150;11.506;2023-02-16T21:46:25;96479.72;;;10.75;46.49
9839;BME280;4958;48.150;11.506;2023-02-16T21:48:52;96483.09;;;10.76;46.44
9839;BME280;4958;48.150;11.506;2023-02-16T21:51:21;96475.38;;;10.76;46.02
9839;BME280;4958;48.150;11.506;2023-02-16T21:53:48;96482.13;;;10.77;46.15
9839;BME280;4958;48.150;11.506;2023-02-16T21:56:25;96488.03;;;10.69;45.99
9839;BME280;4958;48.150;11.506;2023-02-16T21:58:52;96482.09;;;10.68;46.05
9839;BME280;4958;48.150;11.506;2023-02-16T22:01:21;96479.66;;;10.67;45.86
9839;BME280;4958;48.150;11.506;2023-02-16T22:03:51;96478.84;;;10.66;45.78
9839;BME280;4958;48.150;11.506;2023-02-16T22:06:23;96475.63;;;10.64;46.07
9839;BME280;4958;48.150;11.506;2023-02-16T22:08:51;96483.50;;;10.63;46.03
9839;BME280;4958;48.150;11.506;2023-02-16T22:11:18;96480.47;;;10.67;45.95
9839;BME280;4958;48.150;11.506;2023-02-16T22:13:45;96478.34;;;10.63;45.69
9839;BME280;4958;48.150;11.506;2023-02-16T22:16:12;96478.19;;;10.64;46.10
9839;BME280;4958;48.150;11.506;2023-02-16T22:18:42;96473.66;;;10.58;46.07
9839;BME280;4958;48.150;11.506;2023-02-16T22:21:09;96477.03;;;10.59;46.14
9839;BME280;4958;48.150;11.506;2023-02-16T22:23:37;96473.66;;;10.58;45.78
9839;BME280;4958;48.150;11.506;2023-02-16T22:26:07;96468.50;;;10.58;45.78
9839;BME280;4958;48.150;11.506;2023-02-16T22:28:35;96475.28;;;10.59;46.10
9839;BME280;4958;48.150;11.506;2023-02-16T22:31:07;96463.34;;;10.58;45.78
9839;BME280;4958;48.150;11.506;2023-02-16T22:33:34;96469.81;;;10.62;46.21
9839;BME280;4958;48.150;11.506;2023-02-16T22:36:06;96471.28;;;10.65;46.01
9839;BME280;4958;48.150;11.506;2023-02-16T22:38:34;96474.34;;;10.68;45.96
9839;BME280;4958;48.150;11.506;2023-02-16T22:41:04;96473.09;;;10.72;45.56
9839;BME280;4958;48.150;11.506;2023-02-16T22:43:30;96474.22;;;10.70;45.93
9839;BME280;4958;48.150;11.506;2023-02-16T22:45:57;96475.97;;;10.69;45.59
9839;BME280;4958;48.150;11.506;2023-02-16T22:48:27;96470.81;;;10.69;45.54
9839;BME280;4958;48.150;11.506;2023-02-16T22:50:57;96473.56;;;10.68;45.40
9839;BME280;4958;48.150;11.506;2023-02-16T22:53:25;96466.78;;;10.67;45.21
9839;BME280;4958;48.150;11.506;2023-02-16T22:55:52;96476.28;;;10.66;45.30
9839;BME280;4958;48.150;11.506;2023-02-16T22:58:19;96463.56;;;10.65;45.04
9839;BME280;4958;48.150;11.506;2023-02-16T23:00:45;96467.44;;;10.69;45.39
9839;BME280;4958;48.150;11.506;2023-02-16T23:03:12;96471.78;;;10.68;45.04
9839;BME280;4958;48.150;11.506;2023-02-16T23:05:39;96472.13;;;10.73;45.25
9839;BME280;4958;48.150;11.506;2023-02-16T23:08:06;96469.25;;;10.77;45.50
9839;BME280;4958;48.150;11.506;2023-02-16T23:10:35;96470.22;;;10.76;44.92
9839;BME280;4958;48.150;11.506;2023-02-16T23:13:02;96466.81;;;10.75;45.06
9839;BME280;4958;48.150;11.506;2023-02-16T23:15:28;96468.75;;;10.73;45.15
9839;BME280;4958;48.150;11.506;2023-02-16T23:17:55;96467.63;;;10.76;45.09
9839;BME280;4958;48.150;11.506;2023-02-16T23:20:24;96467.47;;;10.77;45.57
9839;BME280;4958;48.150;11.506;2023-02-16T23:22:50;96466.69;;;10.77;45.62
9839;BME280;4958;48.150;11.506;2023-02-16T23:25:17;96470.66;;;10.71;45.14
9839;BME280;4958;48.150;11.506;2023-02-16T23:28:03;96468.25;;;10.69;45.36
9839;BME280;4958;48.150;11.506;2023-02-16T23:30:30;96469.56;;;10.73;45.70
9839;BME280;4958;48.150;11.506;2023-02-16T23:32:56;96471.63;;;10.70;45.65
9839;BME280;4958;48.150;11.506;2023-02-16T23:35:23;96465.50;;;10.71;45.82
9839;BME280;4958;48.150;11.506;2023-02-16T23:37:50;96464.56;;;10.72;45.63
9839;BME280;4958;48.150;11.506;2023-02-16T23:40:16;96461.53;;;10.77;45.55
9839;BME280;4958;48.150;11.506;2023-02-16T23:42:46;96462.31;;;10.77;45.47
9839;BME280;4958;48.150;11.506;2023-02-16T23:45:14;96463.91;;;10.78;45.17
9839;BME280;4958;48.150;11.506;2023-02-16T23:47:40;96461.69;;;10.83;45.56
9839;BME280;4958;48.150;11.506;2023-02-16T23:50:07;96461.19;;;10.80;45.11
9839;BME280;4958;48.150;11.506;2023-02-16T23:52:33;96460.38;;;10.79;45.09
9839;BME280;4958;48.150;11.506;2023-02-16T23:55:00;96457.66;;;10.81;45.50
9839;BME280;4958;48.150;11.506;2023-02-16T23:57:26;96460.88;;;10.83;45.38
9839;BME280;4958;48.150;11.506;2023-02-16T23:59:53;96451.53;;;10.82;45.47
